Time;durP1;ratioP1;P1;durP2;ratioP2;P2;SDS_P1;SDS_P2;PMS_P1;PMS_P2;Temp;Humidity;BMP_temperature;BMP_pressure;BME280_temperature;BME280_humidity;BME280_pressure;Samples;Min_cycle;Max_cycle;Signal;HPM_P1;HPM_P2
2022/07/12 00:00:32;;;;;;;1.73;1.30;;;;;;;14.23;88.68;101690.81;5094579;28;20524;-71
2022/07/12 00:02:59;;;;;;;2.10;1.13;;;;;;;14.11;87.58;101683.88;5094270;28;20571;-73
2022/07/12 00:05:27;;;;;;;1.60;1.10;;;;;;;14.08;86.01;101694.59;5094226;28;20953;-73
2022/07/12 00:07:54;;;;;;;1.90;0.97;;;;;;;13.96;86.14;101695.03;5094441;28;20523;-73
2022/07/12 00:10:20;;;;;;;2.40;0.97;;;;;;;14.00;85.31;101690.63;5094439;28;20847;-73
2022/07/12 00:12:47;;;;;;;1.83;1.20;;;;;;;13.93;86.63;101692.09;5094375;28;20579;-73
2022/07/12 00:15:15;;;;;;;2.80;1.00;;;;;;;13.87;88.14;101691.38;5094378;28;20479;-73
2022/07/12 00:17:42;;;;;;;1.13;1.00;;;;;;;13.78;89.21;101690.44;5094313;28;20449;-73
2022/07/12 00:20:10;;;;;;;2.03;0.97;;;;;;;13.82;88.93;101691.47;5094309;28;20524;-73
2022/07/12 00:22:38;;;;;;;1.20;0.90;;;;;;;13.77;89.96;101686.09;5093782;28;20543;-73
2022/07/12 00:35:10;;;;;;;1.80;1.20;;;;;;;13.66;90.80;101693.59;5094258;28;20443;-74
2022/07/12 00:37:38;;;;;;;1.80;1.23;;;;;;;13.68;90.28;101696.00;5093963;28;20475;-74
2022/07/12 00:40:08;;;;;;;1.80;1.30;;;;;;;13.61;89.65;101696.38;5093690;28;20956;-74
2022/07/12 00:42:35;;;;;;;1.67;1.13;;;;;;;13.54;87.86;101695.94;5093513;28;20464;-74
2022/07/12 00:45:02;;;;;;;2.53;1.43;;;;;;;13.48;87.14;101697.91;5093895;28;20547;-74
2022/07/12 00:47:36;;;;;;;1.00;0.90;;;;;;;13.41;86.61;101702.09;5093832;28;20471;-75
2022/07/12 00:50:04;;;;;;;1.80;1.30;;;;;;;13.28;86.92;101706.34;5093920;28;20444;-74
2022/07/12 00:52:31;;;;;;;3.93;1.27;;;;;;;13.35;87.98;101709.53;5093648;28;20547;-74
2022/07/12 00:54:59;;;;;;;1.87;1.23;;;;;;;13.23;89.87;101701.78;5093715;28;20523;-74
2022/07/12 00:57:25;;;;;;;1.67;1.23;;;;;;;13.14;91.33;101708.94;5093653;28;20476;-74
2022/07/12 00:59:52;;;;;;;3.03;1.20;;;;;;;13.06;91.78;101709.59;5093319;28;21034;-74
2022/07/12 01:02:19;;;;;;;1.90;0.90;;;;;;;13.15;91.32;101710.56;5093196;28;20502;-74
2022/07/12 01:04:46;;;;;;;1.90;1.40;;;;;;;12.96;92.78;101712.41;5093498;28;20488;-74
2022/07/12 01:07:13;;;;;;;1.70;1.30;;;;;;;13.05;92.23;101710.66;5093216;28;20945;-74
2022/07/12 01:09:40;;;;;;;1.77;1.00;;;;;;;12.97;92.37;101705.88;5093476;28;20803;-74
2022/07/12 01:12:09;;;;;;;1.50;1.00;;;;;;;13.04;92.01;101714.50;5093101;28;20544;-74
2022/07/12 01:14:36;;;;;;;1.20;1.10;;;;;;;13.01;92.67;101709.63;5093101;28;20818;-74
2022/07/12 01:17:04;;;;;;;5.30;1.60;;;;;;;13.07;92.48;101708.50;5092979;28;20527;-75
2022/07/12 01:19:32;;;;;;;1.30;1.00;;;;;;;13.11;91.84;101714.97;5093377;28;20804;-77
2022/07/12 01:22:02;;;;;;;1.70;1.10;;;;;;;13.04;92.00;101706.34;5093455;28;20499;-73
2022/07/12 01:24:30;;;;;;;1.10;1.00;;;;;;;13.07;91.66;101698.41;5093072;28;20855;-75
2022/07/12 01:26:57;;;;;;;1.77;1.07;;;;;;;13.00;91.65;101706.09;5093005;28;21005;-72
2022/07/12 01:29:24;;;;;;;1.57;1.10;;;;;;;13.06;91.16;101702.25;5093250;28;20523;-72
2022/07/12 01:31:51;;;;;;;1.97;1.50;;;;;;;13.02;91.29;101705.84;5092869;28;20997;-72
2022/07/12 01:34:18;;;;;;;1.70;1.23;;;;;;;12.98;91.58;101713.75;5092952;28;21025;-72
2022/07/12 01:36:45;;;;;;;1.40;1.00;;;;;;;12.97;91.65;101703.16;5092897;28;20945;-72
2022/07/12 01:39:12;;;;;;;1.13;0.83;;;;;;;12.85;92.20;101719.88;5093249;28;20441;-72
2022/07/12 01:41:41;;;;;;;2.00;1.07;;;;;;;12.87;92.15;101712.22;5092787;28;20997;-72
2022/07/12 01:44:07;;;;;;;1.73;1.40;;;;;;;12.83;92.10;101716.63;5093067;28;20519;-72
2022/07/12 01:46:34;;;;;;;1.83;1.30;;;;;;;12.76;92.11;101714.25;5093078;28;20476;-72
2022/07/12 01:49:01;;;;;;;1.20;0.93;;;;;;;12.75;91.44;101718.09;5092801;28;21017;-72
2022/07/12 01:51:27;;;;;;;1.20;1.10;;;;;;;12.67;90.87;101721.44;5092686;28;20484;-72
2022/07/12 01:53:54;;;;;;;1.00;0.80;;;;;;;12.67;89.23;101723.34;5093119;28;20523;-72
2022/07/12 01:56:20;;;;;;;1.97;1.20;;;;;;;12.63;87.02;101720.38;5092991;28;20450;-72
2022/07/12 01:58:48;;;;;;;1.40;1.10;;;;;;;12.54;86.75;101717.47;5093035;28;20532;-72
2022/07/12 02:01:16;;;;;;;1.57;1.30;;;;;;;12.50;88.69;101710.16;5092456;28;21001;-72
2022/07/12 02:03:42;;;;;;;1.00;0.90;;;;;;;12.45;90.43;101718.38;5092970;28;20559;-72
2022/07/12 02:06:09;;;;;;;1.20;0.87;;;;;;;12.38;91.63;101716.78;5092977;28;20527;-72
2022/07/12 02:08:35;;;;;;;2.10;1.43;;;;;;;12.41;91.75;101717.31;5092828;28;20523;-72
2022/07/12 02:11:02;;;;;;;10.70;1.53;;;;;;;12.35;92.39;101725.53;5092934;28;20436;-72
2022/07/12 02:13:29;;;;;;;1.70;1.27;;;;;;;12.34;92.40;101723.88;5092633;28;20519;-72
2022/07/12 02:15:57;;;;;;;1.63;1.00;;;;;;;12.40;92.51;101721.13;5092585;28;20885;-72
2022/07/12 02:18:23;;;;;;;1.40;1.30;;;;;;;12.41;92.45;101722.75;5092808;28;20447;-72
2022/07/12 02:20:50;;;;;;;1.27;0.90;;;;;;;12.36;92.34;101721.69;5092796;28;20436;-72
2022/07/12 02:23:16;;;;;;;1.63;1.20;;;;;;;12.36;92.29;101718.97;5092675;28;20460;-72
2022/07/12 02:25:43;;;;;;;3.20;1.30;;;;;;;12.30;92.68;101722.81;5092781;28;20547;-72
2022/07/12 02:28:09;;;;;;;2.10;1.10;;;;;;;12.36;92.25;101731.75;5092434;28;20813;-71
2022/07/12 02:30:36;;;;;;;1.97;1.13;;;;;;;12.26;92.46;101727.22;5096254;28;20527;-71
2022/07/12 02:33:04;;;;;;;2.13;1.13;;;;;;;12.24;92.69;101731.31;5096418;28;20551;-72
2022/07/12 02:35:31;;;;;;;1.40;1.00;;;;;;;12.29;91.97;101725.84;5096336;28;20823;-71
2022/07/12 02:37:57;;;;;;;1.53;1.07;;;;;;;12.30;91.57;101728.25;5096340;28;20472;-71
2022/07/12 02:43:04;;;;;;;1.70;1.37;;;;;;;12.19;91.55;101734.88;5082761;28;20958;-71
2022/07/12 02:45:31;;;;;;;1.63;1.23;;;;;;;12.19;92.09;101734.88;5096091;28;20486;-71
2022/07/12 02:47:58;;;;;;;1.17;1.07;;;;;;;12.17;91.65;101737.06;5096135;28;20436;-71
2022/07/12 02:50:26;;;;;;;1.10;1.00;;;;;;;12.10;91.98;101733.88;5095724;28;20603;-71
2022/07/12 02:52:52;;;;;;;1.47;1.07;;;;;;;12.07;92.28;101739.84;5096040;28;20546;-71
2022/07/12 02:55:19;;;;;;;4.17;1.90;;;;;;;12.08;91.82;101741.47;5095609;28;20527;-71
2022/07/12 02:57:45;;;;;;;2.10;1.03;;;;;;;11.98;92.41;101752.41;5095628;28;21040;-71
2022/07/12 03:00:13;;;;;;;2.60;1.47;;;;;;;11.89;93.27;101752.19;5095917;28;20877;-71
2022/07/12 03:02:40;;;;;;;4.23;1.40;;;;;;;11.92;92.45;101753.53;5095294;28;21029;-71
2022/07/12 03:05:08;;;;;;;4.83;1.60;;;;;;;11.96;90.85;101755.41;5095705;28;20473;-71
2022/07/12 03:07:36;;;;;;;1.40;1.30;;;;;;;11.93;90.72;101744.28;5095412;28;20537;-71
2022/07/12 03:10:02;;;;;;;7.70;1.43;;;;;;;11.82;89.24;101749.78;5095693;28;20871;-71
2022/07/12 03:12:29;;;;;;;3.00;1.87;;;;;;;11.84;88.88;101754.94;5095589;28;20460;-71
2022/07/12 03:14:56;;;;;;;3.50;1.33;;;;;;;11.70;91.88;101757.44;5095589;28;20531;-71
2022/07/12 03:17:23;;;;;;;3.40;1.60;;;;;;;11.79;92.93;101758.47;5095518;28;20440;-72
2022/07/12 03:19:49;;;;;;;2.47;1.23;;;;;;;11.81;93.29;101764.41;5095519;28;20532;-72
2022/07/12 03:22:16;;;;;;;3.37;1.47;;;;;;;11.88;93.29;101763.34;5095335;28;20464;-71
2022/07/12 03:24:44;;;;;;;3.73;1.37;;;;;;;11.91;93.45;101763.59;5095291;28;20572;-71
2022/07/12 03:27:10;;;;;;;2.10;1.30;;;;;;;11.84;94.03;101766.59;5095361;28;20476;-71
2022/07/12 03:29:37;;;;;;;3.00;1.40;;;;;;;11.81;93.92;101764.41;5095267;28;20483;-73
2022/07/12 03:32:05;;;;;;;2.20;1.40;;;;;;;11.83;93.85;101764.19;5095168;28;20539;-73
2022/07/12 03:34:32;;;;;;;1.87;1.20;;;;;;;11.75;94.90;101762.81;5095171;28;20440;-73
2022/07/12 03:36:59;;;;;;;2.67;1.70;;;;;;;11.81;93.98;101758.16;5095157;28;20479;-72
2022/07/12 03:39:26;;;;;;;4.50;1.67;;;;;;;11.77;92.12;101759.81;5095130;28;20487;-72
2022/07/12 03:41:54;;;;;;;2.83;1.13;;;;;;;11.77;91.13;101763.34;5094426;28;20555;-72
2022/07/12 03:44:21;;;;;;;4.33;1.37;;;;;;;11.70;90.76;101767.47;5094950;28;20542;-72
2022/07/12 03:46:48;;;;;;;1.30;0.93;;;;;;;11.65;91.15;101768.31;5095374;28;20444;-72
2022/07/12 03:49:15;;;;;;;1.40;0.97;;;;;;;11.73;91.12;101765.03;5094899;28;20448;-73
2022/07/12 03:51:42;;;;;;;1.57;1.03;;;;;;;11.84;92.29;101761.19;5094449;28;20471;-72
2022/07/12 03:54:09;;;;;;;2.10;1.50;;;;;;;11.87;93.37;101765.25;5094510;28;20472;-73
2022/07/12 03:59:21;;;;;;;0.93;0.80;;;;;;;11.81;96.01;101767.13;5094604;28;20526;-73
2022/07/12 04:01:48;;;;;;;1.77;1.10;;;;;;;12.02;95.60;101767.03;5094341;28;20487;-72
2022/07/12 04:04:15;;;;;;;1.27;1.10;;;;;;;11.96;96.24;101773.63;5094564;28;20575;-73
2022/07/12 04:06:41;;;;;;;1.87;1.10;;;;;;;11.95;97.55;101769.25;5094565;28;20479;-73
2022/07/12 04:09:08;;;;;;;2.40;1.30;;;;;;;12.11;96.83;101771.59;5094255;28;20476;-73
2022/07/12 04:11:35;;;;;;;1.53;0.97;;;;;;;12.22;96.70;101775.06;5094410;28;20539;-73
2022/07/12 04:14:01;;;;;;;2.83;1.37;;;;;;;12.35;96.33;101774.44;5094468;28;20532;-73
2022/07/12 04:16:30;;;;;;;1.30;0.83;;;;;;;12.41;96.56;101777.09;5094385;28;20519;-73
2022/07/12 04:18:57;;;;;;;3.03;1.63;;;;;;;12.31;98.15;101769.84;5094369;28;20441;-73
2022/07/12 04:21:24;;;;;;;1.97;1.57;;;;;;;12.47;97.69;101775.94;5094199;28;20543;-73
2022/07/12 04:23:50;;;;;;;1.50;0.90;;;;;;;12.57;98.02;101782.13;5094162;28;20868;-73
2022/07/12 04:26:17;;;;;;;1.57;1.27;;;;;;;12.59;98.05;101779.94;5093948;28;20527;-72
2022/07/12 04:28:50;;;;;;;1.60;1.03;;;;;;;12.70;97.11;101782.53;5094873;28;20848;-71
2022/07/12 04:31:16;;;;;;;1.93;1.13;;;;;;;12.71;97.10;101782.28;5093931;28;20523;-71
2022/07/12 04:33:44;;;;;;;7.53;1.13;;;;;;;12.88;96.89;101784.53;5093796;28;20527;-72
2022/07/12 04:36:11;;;;;;;2.67;1.47;;;;;;;13.05;95.57;101781.41;5094078;28;20489;-72
2022/07/12 04:38:37;;;;;;;2.50;1.20;;;;;;;13.16;94.62;101779.41;5093945;28;20448;-71
2022/07/12 04:41:04;;;;;;;5.63;1.80;;;;;;;13.25;93.69;101783.94;5093908;28;20795;-71
2022/07/12 04:43:31;;;;;;;2.53;1.40;;;;;;;13.38;92.21;101787.88;5093580;28;20968;-72
2022/07/12 04:46:06;;;;;;;1.53;1.10;;;;;;;13.46;91.46;101778.25;5093942;28;20572;-74
2022/07/12 04:48:33;;;;;;;3.13;1.43;;;;;;;13.52;90.54;101779.81;5097109;28;20432;-77
2022/07/12 04:51:01;;;;;;;1.70;1.00;;;;;;;13.54;90.08;101783.84;5093842;28;20472;-74
2022/07/12 04:53:27;;;;;;;1.57;1.17;;;;;;;13.68;89.13;101783.13;5092833;28;20471;-72
2022/07/12 04:55:55;;;;;;;1.23;0.93;;;;;;;13.77;89.01;101786.84;5093733;28;20484;-76
2022/07/12 04:58:21;;;;;;;2.00;1.40;;;;;;;13.87;88.85;101786.72;5093341;28;21021;-72
2022/07/12 05:00:48;;;;;;;2.07;1.23;;;;;;;14.05;87.96;101798.72;5093649;28;20529;-71
2022/07/12 05:03:14;;;;;;;3.07;1.53;;;;;;;14.18;87.71;101784.34;5093126;28;20568;-72
2022/07/12 05:05:41;;;;;;;2.37;1.30;;;;;;;14.27;85.83;101793.47;5093513;28;20563;-72
2022/07/12 05:08:09;;;;;;;2.50;1.50;;;;;;;14.36;85.22;101799.88;5093222;28;21028;-72
2022/07/12 05:10:36;;;;;;;2.20;1.13;;;;;;;14.46;85.01;101800.81;5093464;28;20527;-71
2022/07/12 05:13:03;;;;;;;1.77;1.13;;;;;;;14.50;84.79;101793.69;5093444;28;20464;-72
2022/07/12 05:15:29;;;;;;;1.47;0.97;;;;;;;14.57;84.51;101794.13;5093335;28;20874;-72
2022/07/12 05:17:56;;;;;;;1.50;1.03;;;;;;;14.67;83.49;101799.41;5093142;28;20531;-72
2022/07/12 05:20:23;;;;;;;1.30;1.10;;;;;;;14.73;83.84;101798.19;5093366;28;20440;-71
2022/07/12 05:22:49;;;;;;;1.00;0.70;;;;;;;14.83;83.03;101789.88;5092948;28;20547;-71
2022/07/12 05:25:17;;;;;;;1.23;1.00;;;;;;;14.95;82.65;101802.19;5093221;28;20476;-72
2022/07/12 05:27:44;;;;;;;1.37;0.90;;;;;;;15.00;82.01;101799.38;5093284;28;20523;-72
2022/07/12 05:30:11;;;;;;;2.07;1.00;;;;;;;15.05;82.58;101807.47;5093186;28;20448;-72
2022/07/12 05:32:38;;;;;;;2.50;1.00;;;;;;;15.22;81.61;101810.41;5092731;28;20543;-72
2022/07/12 05:35:05;;;;;;;0.70;0.50;;;;;;;15.41;80.49;101815.81;5093265;28;20519;-73
2022/07/12 05:37:42;;;;;;;1.20;0.83;;;;;;;15.55;79.20;101815.78;5093211;28;20511;-73
2022/07/12 05:40:09;;;;;;;2.10;1.10;;;;;;;15.66;79.25;101819.16;5092965;28;20519;-72
2022/07/12 05:42:37;;;;;;;1.03;0.93;;;;;;;15.79;78.09;101818.31;5093076;28;20461;-73
2022/07/12 05:45:05;;;;;;;1.50;0.87;;;;;;;15.87;78.42;101820.34;5093004;28;20512;-73
2022/07/12 05:47:32;;;;;;;1.20;1.10;;;;;;;15.98;77.20;101827.22;5093116;28;20523;-73
2022/07/12 05:49:58;;;;;;;1.37;0.83;;;;;;;16.04;77.42;101825.16;5092783;28;20531;-73
2022/07/12 05:55:09;;;;;;;1.63;1.13;;;;;;;16.30;76.23;101823.47;5094726;28;20404;-76
2022/07/12 05:57:36;;;;;;;1.30;0.90;;;;;;;16.40;76.12;101828.69;5093248;28;20443;-73
2022/07/12 06:00:05;;;;;;;1.43;0.83;;;;;;;16.51;75.35;101836.66;5093498;28;20471;-72
2022/07/12 06:02:31;;;;;;;11.13;1.70;;;;;;;16.63;74.61;101839.66;5092446;28;20508;-73
2022/07/12 06:04:58;;;;;;;3.03;0.93;;;;;;;16.74;73.77;101845.72;5095923;28;20909;-72
2022/07/12 06:07:24;;;;;;;1.00;0.83;;;;;;;16.83;73.26;101849.31;5096903;28;20561;-74
2022/07/12 06:09:51;;;;;;;1.67;0.90;;;;;;;16.89;72.71;101845.31;5096819;28;20536;-72
2022/07/12 06:12:18;;;;;;;0.90;0.53;;;;;;;17.02;71.87;101835.41;5096436;28;20543;-73
2022/07/12 06:14:44;;;;;;;1.10;0.80;;;;;;;17.15;71.31;101843.53;5096393;28;20436;-72
2022/07/12 06:17:12;;;;;;;1.20;0.80;;;;;;;17.24;70.54;101842.78;5096437;28;21027;-73
2022/07/12 06:19:40;;;;;;;1.57;0.87;;;;;;;17.34;70.43;101840.56;5096432;28;20436;-73
2022/07/12 06:22:06;;;;;;;1.13;0.73;;;;;;;17.46;71.14;101836.44;5096545;28;20555;-73
2022/07/12 06:24:33;;;;;;;1.20;0.70;;;;;;;17.59;70.46;101827.28;5096174;28;20531;-74
2022/07/12 06:27:00;;;;;;;1.10;0.90;;;;;;;17.63;70.71;101837.28;5096580;28;20471;-74
2022/07/12 06:29:26;;;;;;;1.73;0.90;;;;;;;17.75;70.07;101841.38;5096428;28;20475;-75
2022/07/12 06:31:53;;;;;;;0.90;0.60;;;;;;;17.81;70.65;101835.44;5096406;28;20906;-72
2022/07/12 06:34:21;;;;;;;5.23;0.70;;;;;;;17.86;71.12;101834.47;5096373;28;20524;-72
2022/07/12 06:36:48;;;;;;;1.30;0.93;;;;;;;17.97;70.99;101835.75;5096400;28;20451;-72
2022/07/12 06:39:14;;;;;;;2.60;1.00;;;;;;;18.07;70.44;101851.13;5096310;28;20535;-72
2022/07/12 06:41:41;;;;;;;1.20;0.80;;;;;;;18.09;69.59;101843.38;5096174;28;20460;-72
2022/07/12 06:44:07;;;;;;;0.93;0.70;;;;;;;18.16;68.49;101843.72;5095905;28;20527;-72
2022/07/12 06:46:34;;;;;;;0.90;0.53;;;;;;;18.28;69.25;101841.16;5096074;28;20523;-72
2022/07/12 06:49:00;;;;;;;3.70;0.80;;;;;;;18.40;69.21;101838.53;5096191;28;20535;-72
2022/07/12 06:51:28;;;;;;;1.20;0.90;;;;;;;18.51;68.65;101838.22;5095973;28;20543;-72
2022/07/12 06:53:55;;;;;;;1.47;0.63;;;;;;;18.54;69.25;101838.38;5096128;28;20536;-72
2022/07/12 06:56:22;;;;;;;0.90;0.70;;;;;;;18.65;69.03;101839.66;5095970;28;20443;-72
2022/07/12 06:58:48;;;;;;;1.27;0.70;;;;;;;18.67;68.92;101842.88;5095643;28;20482;-72
2022/07/12 07:01:15;;;;;;;1.17;0.67;;;;;;;18.78;68.30;101842.59;5095369;28;20452;-73
2022/07/12 07:03:42;;;;;;;1.17;0.80;;;;;;;18.89;67.67;101836.41;5098127;28;20439;-77
2022/07/12 07:06:09;;;;;;;0.80;0.50;;;;;;;18.98;67.03;101830.88;5096988;28;20512;-72
2022/07/12 07:08:37;;;;;;;2.23;1.10;;;;;;;19.08;66.21;101837.97;5095672;28;20513;-73
2022/07/12 07:11:03;;;;;;;0.90;0.60;;;;;;;19.19;64.29;101833.75;5095316;28;20523;-73
2022/07/12 07:13:30;;;;;;;2.27;0.73;;;;;;;19.28;64.08;101829.00;5095330;28;20448;-72
2022/07/12 07:15:56;;;;;;;0.70;0.50;;;;;;;19.41;63.93;101835.44;5094621;28;20440;-73
2022/07/12 07:18:23;;;;;;;1.53;0.90;;;;;;;19.45;64.52;101832.84;5095491;28;20531;-71
2022/07/12 07:20:50;;;;;;;2.47;0.90;;;;;;;19.55;63.59;101827.75;5095507;28;20456;-72
2022/07/12 07:23:17;;;;;;;0.83;0.67;;;;;;;19.59;64.29;101831.47;5095373;28;20460;-73
2022/07/12 07:25:46;;;;;;;1.47;0.80;;;;;;;19.72;64.02;101820.59;5095071;28;20480;-72
2022/07/12 07:28:13;;;;;;;1.60;0.90;;;;;;;19.82;62.93;101826.50;5095385;28;20858;-72
2022/07/12 07:30:54;;;;;;;2.17;1.07;;;;;;;19.96;62.64;101820.75;5095027;28;20956;-72
2022/07/12 07:33:21;;;;;;;1.17;0.80;;;;;;;20.07;62.51;101821.97;5095214;28;20565;-72
2022/07/12 07:35:48;;;;;;;0.90;0.50;;;;;;;20.19;61.51;101828.66;5095191;28;20432;-72
2022/07/12 07:38:15;;;;;;;0.80;0.50;;;;;;;20.24;61.61;101832.03;5095290;28;20448;-72
2022/07/12 07:40:42;;;;;;;0.83;0.53;;;;;;;20.47;58.59;101826.19;5095087;28;20444;-72
2022/07/12 07:43:10;;;;;;;1.37;0.83;;;;;;;20.55;58.02;101834.38;5095011;28;20543;-72
2022/07/12 07:45:37;;;;;;;0.93;0.60;;;;;;;20.61;58.48;101821.19;5094611;28;20567;-72
2022/07/12 07:48:04;;;;;;;1.27;0.57;;;;;;;20.71;57.83;101825.47;5094974;28;20527;-72
2022/07/12 07:50:31;;;;;;;3.13;1.10;;;;;;;20.83;58.70;101831.03;5094925;28;20451;-72
2022/07/12 07:52:58;;;;;;;0.80;0.60;;;;;;;20.80;57.94;101820.69;5094821;28;20464;-72
2022/07/12 07:55:25;;;;;;;2.00;0.80;;;;;;;20.84;58.34;101822.41;5094811;28;20567;-72
2022/07/12 07:57:51;;;;;;;0.90;0.60;;;;;;;20.96;57.19;101812.59;5094749;28;20439;-72
2022/07/12 08:00:20;;;;;;;8.10;0.73;;;;;;;21.02;56.84;101811.19;5094738;28;20524;-72
2022/07/12 08:02:46;;;;;;;0.77;0.50;;;;;;;21.03;55.97;101813.63;5094194;28;20563;-73
2022/07/12 08:05:13;;;;;;;0.60;0.40;;;;;;;21.08;55.00;101810.66;5094575;28;20512;-72
2022/07/12 08:07:39;;;;;;;5.37;0.87;;;;;;;21.24;54.79;101812.72;5094265;28;20535;-73
2022/07/12 08:10:07;;;;;;;1.17;0.50;;;;;;;21.26;57.42;101807.69;5094252;28;20488;-72
2022/07/12 08:12:34;;;;;;;1.60;0.50;;;;;;;21.32;55.72;101814.59;5094088;28;20535;-72
2022/07/12 08:15:01;;;;;;;0.80;0.50;;;;;;;21.40;54.98;101821.97;5094173;28;20444;-73
2022/07/12 08:17:29;;;;;;;0.93;0.50;;;;;;;21.54;53.97;101807.81;5094079;28;20527;-73
2022/07/12 08:19:56;;;;;;;2.00;0.50;;;;;;;21.60;53.28;101812.78;5094109;28;20867;-73
2022/07/12 08:22:23;;;;;;;0.83;0.57;;;;;;;21.54;56.04;101813.34;5094139;28;20543;-72
2022/07/12 08:24:49;;;;;;;1.27;0.60;;;;;;;21.05;58.88;101816.84;5094276;28;20527;-72
2022/07/12 08:27:16;;;;;;;1.67;0.70;;;;;;;20.84;59.09;101814.16;5093685;28;20484;-73
2022/07/12 08:29:42;;;;;;;0.70;0.40;;;;;;;20.68;59.91;101813.22;5094164;28;20528;-72
2022/07/12 08:32:09;;;;;;;0.93;0.63;;;;;;;20.74;59.50;101814.59;5094021;28;20550;-73
2022/07/12 08:34:37;;;;;;;0.87;0.60;;;;;;;20.95;59.38;101820.03;5094040;28;20440;-75
2022/07/12 08:37:05;;;;;;;1.00;0.40;;;;;;;21.10;57.79;101811.09;5094121;28;20539;-74
2022/07/12 08:39:31;;;;;;;3.73;0.70;;;;;;;21.24;60.59;101824.53;5093950;28;20483;-72
2022/07/12 08:41:58;;;;;;;1.30;0.73;;;;;;;21.28;57.88;101819.97;5093675;28;20543;-73
2022/07/12 08:44:25;;;;;;;1.07;0.60;;;;;;;21.27;58.70;101812.03;5093608;28;20934;-71
2022/07/12 08:46:52;;;;;;;1.53;0.50;;;;;;;21.27;58.62;101801.81;5093755;28;20479;-73
2022/07/12 08:49:19;;;;;;;2.37;0.80;;;;;;;21.47;56.92;101818.63;5093830;28;20455;-73
2022/07/12 08:51:48;;;;;;;1.87;1.00;;;;;;;21.54;57.13;101813.34;5093672;28;20542;-73
2022/07/12 08:54:16;;;;;;;0.70;0.40;;;;;;;21.61;55.76;101822.66;5093758;28;20450;-73
2022/07/12 08:56:44;;;;;;;0.90;0.57;;;;;;;21.74;54.59;101815.16;5093452;28;20437;-73
2022/07/12 08:59:13;;;;;;;0.90;0.50;;;;;;;21.91;52.36;101808.56;5093689;28;20436;-73
2022/07/12 09:01:41;;;;;;;0.80;0.60;;;;;;;22.03;51.53;101810.50;5093132;28;20479;-73
2022/07/12 09:04:12;;;;;;;0.60;0.37;;;;;;;22.12;51.12;101809.22;5093542;28;20417;-73
2022/07/12 09:06:38;;;;;;;0.87;0.60;;;;;;;22.09;51.50;101820.13;5093480;28;20476;-72
2022/07/12 09:09:08;;;;;;;0.77;0.53;;;;;;;22.15;51.71;101824.31;5093262;28;20532;-73
2022/07/12 09:11:37;;;;;;;0.77;0.43;;;;;;;22.23;50.92;101822.56;5093191;28;20510;-73
2022/07/12 09:14:03;;;;;;;0.60;0.40;;;;;;;22.35;51.46;101820.53;5093515;28;20437;-73
2022/07/12 09:16:30;;;;;;;1.20;0.60;;;;;;;22.47;52.17;101814.16;5093161;28;20441;-73
2022/07/12 09:19:14;;;;;;;3.90;0.60;;;;;;;22.66;50.04;101819.00;5093094;28;20473;-73
2022/07/12 09:21:49;;;;;;;1.83;0.60;;;;;;;22.73;48.40;101819.22;5092970;28;20562;-72
2022/07/12 09:24:17;;;;;;;1.80;0.60;;;;;;;22.73;50.12;101816.47;5093134;28;20435;-74
2022/07/12 09:26:44;;;;;;;0.60;0.40;;;;;;;22.82;48.34;101813.53;5093199;28;20479;-73
2022/07/12 09:29:13;;;;;;;0.70;0.43;;;;;;;22.81;49.23;101812.72;5093038;28;20965;-74
2022/07/12 09:36:06;;;;;;;1.17;0.63;;;;;;;22.94;49.13;101809.94;5093174;28;20468;-75
2022/07/12 09:37:12;;;;;;;3.57;0.50;;;;;;;23.08;49.76;101797.25;5092979;28;20427;-74
2022/07/12 09:39:41;;;;;;;2.40;0.70;;;;;;;23.10;49.32;101803.22;5095221;28;20964;-72
2022/07/12 09:42:10;;;;;;;0.60;0.40;;;;;;;23.12;48.54;101798.16;5097303;28;20460;-74
2022/07/12 09:44:37;;;;;;;0.60;0.40;;;;;;;23.26;48.82;101802.44;5097218;28;20786;-75
2022/07/12 09:47:04;;;;;;;1.63;0.90;;;;;;;23.27;46.47;101793.78;5096835;28;20491;-75
2022/07/12 09:49:32;;;;;;;0.70;0.50;;;;;;;23.27;48.40;101802.06;5097281;28;20424;-74
2022/07/12 09:52:00;;;;;;;0.67;0.43;;;;;;;23.23;47.62;101801.16;5097180;28;20505;-75
2022/07/12 09:54:29;;;;;;;1.00;0.70;;;;;;;23.36;46.38;101799.13;5096834;28;20956;-74
2022/07/12 09:57:00;;;;;;;1.03;0.70;;;;;;;23.42;46.34;101804.03;5096790;28;20436;-74
2022/07/12 09:59:29;;;;;;;1.00;0.50;;;;;;;23.40;47.92;101800.81;5096806;28;20424;-74
2022/07/12 10:02:00;;;;;;;0.60;0.30;;;;;;;23.40;46.48;101795.28;5096746;28;20574;-73
2022/07/12 10:04:30;;;;;;;0.90;0.70;;;;;;;23.56;46.08;101808.28;5096987;28;20432;-72
2022/07/12 10:06:57;;;;;;;0.90;0.60;;;;;;;23.66;45.68;101799.44;5096585;28;21095;-73
2022/07/12 10:09:25;;;;;;;0.93;0.43;;;;;;;23.76;45.41;101801.66;5096970;28;20472;-73
2022/07/12 10:11:52;;;;;;;0.80;0.43;;;;;;;23.82;45.31;101800.22;5096850;28;20555;-75
2022/07/12 10:14:21;;;;;;;1.23;0.50;;;;;;;23.83;45.93;101796.28;5096577;28;20543;-73
2022/07/12 10:16:51;;;;;;;0.60;0.40;;;;;;;23.91;45.61;101794.47;5096514;28;20475;-72
2022/07/12 10:19:26;;;;;;;1.20;0.50;;;;;;;24.00;46.30;101811.69;5096676;28;20512;-73
2022/07/12 10:21:54;;;;;;;0.80;0.50;;;;;;;24.07;46.68;101802.72;5096555;28;20555;-74
2022/07/12 10:24:49;;;;;;;0.60;0.40;;;;;;;24.10;45.85;101788.94;5096634;28;21000;-74
2022/07/12 10:27:30;;;;;;;0.80;0.50;;;;;;;24.16;46.83;101792.22;5096537;28;20890;-73
2022/07/12 10:30:17;;;;;;;0.87;0.57;;;;;;;24.28;45.57;101786.53;5096483;28;20440;-73
2022/07/12 10:32:45;;;;;;;0.83;0.60;;;;;;;24.38;45.42;101796.25;5096112;28;21020;-74
2022/07/12 10:35:14;;;;;;;1.00;0.50;;;;;;;24.56;45.42;101791.03;5096316;28;20532;-74
2022/07/12 10:37:40;;;;;;;0.87;0.53;;;;;;;24.55;44.72;101792.22;5096002;28;20445;-73
2022/07/12 10:40:15;;;;;;;0.80;0.40;;;;;;;24.45;45.10;101795.59;5096240;28;20471;-74
2022/07/12 10:43:18;;;;;;;0.73;0.50;;;;;;;24.46;44.70;101786.13;5095807;28;20493;-73
2022/07/12 10:45:47;;;;;;;1.13;0.70;;;;;;;24.56;44.33;101793.81;5096075;28;20511;-73
2022/07/12 10:48:22;;;;;;;0.90;0.60;;;;;;;24.61;44.95;101793.50;5096073;28;20432;-73
2022/07/12 10:50:58;;;;;;;0.90;0.60;;;;;;;24.74;46.53;101794.16;5094704;28;20551;-74
2022/07/12 10:53:37;;;;;;;0.77;0.40;;;;;;;24.80;43.57;101795.47;5096024;28;20463;-74
2022/07/12 10:56:11;;;;;;;1.23;0.47;;;;;;;24.96;44.14;101800.88;5096401;28;20444;-74
2022/07/12 10:58:40;;;;;;;0.80;0.47;;;;;;;25.10;42.92;101801.97;5095627;28;20875;-73
2022/07/12 11:01:10;;;;;;;0.70;0.47;;;;;;;25.13;42.57;101784.56;5095423;28;20436;-73
2022/07/12 11:03:41;;;;;;;0.70;0.40;;;;;;;25.24;43.66;101781.97;5095888;28;20460;-74
2022/07/12 11:06:10;;;;;;;1.20;0.50;;;;;;;25.38;42.91;101787.72;5095744;28;20583;-74
2022/07/12 11:08:53;;;;;;;0.80;0.60;;;;;;;25.52;43.18;101791.91;5095434;28;20440;-73
2022/07/12 11:11:21;;;;;;;1.90;0.63;;;;;;;25.84;41.71;101793.16;5095295;28;20499;-73
2022/07/12 11:13:47;;;;;;;0.70;0.40;;;;;;;26.00;43.33;101786.63;5095720;28;20448;-74
2022/07/12 11:16:16;;;;;;;1.13;0.50;;;;;;;26.01;40.61;101791.00;5095592;28;20464;-74
2022/07/12 11:18:43;;;;;;;0.70;0.40;;;;;;;25.99;42.30;101788.63;5095513;28;20487;-74
2022/07/12 11:21:10;;;;;;;1.10;0.50;;;;;;;25.95;41.45;101801.66;5095163;28;20942;-73
2022/07/12 11:23:40;;;;;;;1.43;0.70;;;;;;;25.85;40.45;101796.75;5095414;28;20555;-73
2022/07/12 11:26:08;;;;;;;0.60;0.40;;;;;;;25.94;41.78;101791.69;5095736;28;20474;-73
2022/07/12 11:28:34;;;;;;;1.10;0.40;;;;;;;26.45;41.07;101782.81;5095345;28;20440;-73
2022/07/12 11:31:06;;;;;;;0.70;0.50;;;;;;;26.82;39.69;101788.34;5095039;28;20535;-73
2022/07/12 11:33:36;;;;;;;0.60;0.40;;;;;;;26.55;38.64;101778.56;5095212;28;20476;-73
2022/07/12 11:36:04;;;;;;;0.70;0.40;;;;;;;26.61;39.40;101793.72;5095271;28;20428;-74
2022/07/12 11:38:31;;;;;;;0.87;0.53;;;;;;;26.70;39.21;101788.66;5095166;28;20531;-73
2022/07/12 11:40:59;;;;;;;1.77;0.87;;;;;;;27.19;39.06;101793.06;5095084;28;20473;-74
2022/07/12 11:43:26;;;;;;;6.13;0.70;;;;;;;27.28;38.24;101804.66;5094652;28;20461;-74
2022/07/12 11:45:53;;;;;;;1.20;0.47;;;;;;;27.03;38.20;101795.28;5095085;28;20484;-73
2022/07/12 11:48:21;;;;;;;0.60;0.40;;;;;;;27.57;39.60;101790.94;5094902;28;20484;-74